Time;durP1;ratioP1;P1;durP2;ratioP2;P2;SDS_P1;SDS_P2;PMS_P1;PMS_P2;Temp;Humidity;BMP_temperature;BMP_pressure;BME280_temperature;BME280_humidity;BME280_pressure;Samples;Min_cycle;Max_cycle;Signal;HPM_P1;HPM_P2
2021/08/27 00:02:02;;;;;;;11.27;1.70;;;14.40;93.30;;;;;;5022298;28;20045;-52
2021/08/27 00:04:29;;;;;;;8.18;2.10;;;14.50;93.20;;;;;;5056997;28;20505;-53
2021/08/27 00:06:55;;;;;;;5.45;1.75;;;14.50;93.20;;;;;;5051684;28;20055;-55
2021/08/27 00:09:20;;;;;;;9.48;2.00;;;14.50;93.20;;;;;;5045017;28;20102;-52
2021/08/27 00:11:46;;;;;;;9.15;2.20;;;14.50;93.10;;;;;;5042012;28;20116;-56
2021/08/27 00:14:11;;;;;;;12.25;2.03;;;14.50;93.10;;;;;;5044078;28;20056;-54
2021/08/27 00:16:37;;;;;;;7.65;2.10;;;14.50;93.10;;;;;;5043511;28;20033;-58
2021/08/27 00:19:07;;;;;;;8.82;2.40;;;14.50;93.10;;;;;;5042511;28;20044;-58
2021/08/27 00:21:33;;;;;;;9.45;1.92;;;14.50;93.10;;;;;;5056447;28;20045;-57
2021/08/27 00:24:01;;;;;;;13.10;2.53;;;14.40;93.10;;;;;;5038024;28;20041;-58
2021/08/27 00:26:32;;;;;;;12.52;1.75;;;14.40;93.10;;;;;;5020645;28;20072;-58
2021/08/27 00:28:58;;;;;;;8.88;2.03;;;14.40;93.20;;;;;;5037949;28;20404;-57
2021/08/27 00:31:25;;;;;;;14.75;2.00;;;14.40;93.10;;;;;;5046754;28;20116;-56
2021/08/27 00:33:52;;;;;;;8.48;2.30;;;14.40;93.10;;;;;;5033565;28;20041;-57
2021/08/27 00:36:17;;;;;;;7.95;2.17;;;14.40;93.20;;;;;;5036458;28;20170;-58
2021/08/27 00:38:44;;;;;;;9.50;1.67;;;14.50;93.20;;;;;;5052242;28;20497;-51
2021/08/27 00:41:12;;;;;;;11.13;2.30;;;14.50;93.20;;;;;;5054307;28;20175;-53
2021/08/27 00:43:40;;;;;;;10.38;2.40;;;14.50;93.20;;;;;;5036133;28;20041;-53
2021/08/27 00:46:05;;;;;;;17.70;2.40;;;14.50;93.20;;;;;;5025887;28;20033;-52
2021/08/27 00:48:31;;;;;;;10.02;2.45;;;14.50;93.20;;;;;;5053625;28;20049;-53
2021/08/27 00:51:02;;;;;;;6.78;2.05;;;14.50;93.10;;;;;;5053388;28;20485;-56
2021/08/27 00:53:27;;;;;;;7.80;1.73;;;14.50;93.00;;;;;;5023002;28;20098;-50
2021/08/27 00:55:53;;;;;;;7.10;1.98;;;14.50;93.00;;;;;;5052329;28;20120;-53
2021/08/27 00:58:23;;;;;;;9.45;2.28;;;14.60;92.90;;;;;;5034086;28;20045;-55
2021/08/27 01:00:49;;;;;;;11.80;2.50;;;14.60;93.00;;;;;;5048336;28;20041;-57
2021/08/27 01:03:17;;;;;;;5.35;1.77;;;14.60;92.90;;;;;;5052790;28;20032;-53
2021/08/27 01:05:52;;;;;;;7.28;2.10;;;14.60;92.90;;;;;;5052901;28;20116;-51
2021/08/27 01:08:33;;;;;;;9.02;2.40;;;14.60;92.80;;;;;;5052552;28;20040;-54
2021/08/27 01:11:16;;;;;;;9.90;2.60;;;14.70;92.90;;;;;;5018614;28;20040;-54
2021/08/27 01:13:54;;;;;;;9.93;2.30;;;14.70;92.90;;;;;;5052829;28;20519;-53
2021/08/27 01:16:31;;;;;;;11.48;1.75;;;14.70;92.90;;;;;;5036009;28;20081;-53
2021/08/27 01:19:37;;;;;;;9.98;2.05;;;14.70;93.00;;;;;;5022991;28;20444;-51
2021/08/27 01:22:22;;;;;;;10.07;2.08;;;14.70;92.80;;;;;;5042250;28;20039;-53
2021/08/27 01:24:52;;;;;;;8.00;1.90;;;14.70;92.80;;;;;;5034361;28;20497;-53
2021/08/27 01:27:20;;;;;;;9.70;2.80;;;14.70;92.70;;;;;;5018389;28;20049;-53
2021/08/27 01:30:10;;;;;;;9.02;1.92;;;14.70;92.90;;;;;;5052176;28;20069;-54
2021/08/27 01:32:59;;;;;;;11.63;2.03;;;14.70;92.80;;;;;;5017907;28;20037;-52
2021/08/27 01:35:32;;;;;;;9.73;2.15;;;14.70;92.90;;;;;;5043044;28;20040;-54
2021/08/27 01:38:02;;;;;;;15.02;2.22;;;14.70;92.90;;;;;;5031480;28;20032;-50
2021/08/27 01:40:29;;;;;;;9.75;2.22;;;14.70;92.90;;;;;;5040049;28;20098;-54
2021/08/27 01:43:06;;;;;;;7.95;1.92;;;14.60;92.90;;;;;;5034919;28;20064;-55
2021/08/27 01:45:32;;;;;;;9.10;2.05;;;14.60;93.00;;;;;;5030196;28;20404;-51
2021/08/27 01:48:00;;;;;;;8.68;2.45;;;14.60;93.00;;;;;;5039238;28;20045;-54
2021/08/27 01:50:29;;;;;;;8.82;2.10;;;14.50;93.10;;;;;;5051798;28;20036;-56
2021/08/27 01:52:55;;;;;;;9.27;2.00;;;14.40;93.20;;;;;;5032920;28;20037;-56
2021/08/27 01:55:22;;;;;;;6.88;1.85;;;14.40;93.30;;;;;;5044047;28;20060;-56
2021/08/27 01:57:50;;;;;;;10.98;2.22;;;14.40;93.40;;;;;;5028550;28;20053;-56
2021/08/27 02:00:16;;;;;;;6.57;2.00;;;14.40;93.50;;;;;;5018227;28;20094;-57
2021/08/27 02:02:46;;;;;;;8.48;2.03;;;14.40;93.50;;;;;;5047086;28;20493;-55
2021/08/27 02:05:13;;;;;;;9.90;2.45;;;14.40;93.70;;;;;;5043039;28;20073;-57
2021/08/27 02:07:42;;;;;;;9.55;2.08;;;14.30;93.70;;;;;;5045855;28;20033;-51
2021/08/27 02:10:10;;;;;;;12.52;2.15;;;14.40;93.80;;;;;;5034376;28;20091;-53
2021/08/27 02:12:35;;;;;;;11.35;2.10;;;14.40;93.80;;;;;;5052701;28;20036;-57
2021/08/27 02:15:02;;;;;;;9.38;1.92;;;14.40;93.80;;;;;;5047361;28;20037;-54
2021/08/27 02:17:30;;;;;;;8.50;2.10;;;14.40;93.80;;;;;;5047186;28;20084;-54
2021/08/27 02:20:03;;;;;;;8.68;2.40;;;14.30;93.90;;;;;;5049913;28;20033;-55
2021/08/27 02:22:32;;;;;;;8.50;2.15;;;14.40;93.90;;;;;;5047664;28;20041;-55
2021/08/27 02:25:12;;;;;;;10.23;2.25;;;14.40;93.90;;;;;;5041925;28;20075;-53
2021/08/27 02:27:40;;;;;;;12.40;2.20;;;14.40;94.00;;;;;;5013094;28;20041;-56
2021/08/27 02:30:07;;;;;;;8.63;2.75;;;14.40;93.90;;;;;;5051257;28;20087;-56
2021/08/27 02:32:34;;;;;;;9.95;2.33;;;14.40;93.90;;;;;;5041176;28;20489;-56
2021/08/27 02:35:03;;;;;;;9.25;2.10;;;14.40;94.00;;;;;;5034070;28;20111;-56
2021/08/27 02:37:32;;;;;;;7.40;2.00;;;14.30;94.00;;;;;;5029047;28;20049;-56
2021/08/27 02:39:58;;;;;;;11.00;2.20;;;14.30;94.00;;;;;;5046697;28;20037;-56
2021/08/27 02:42:31;;;;;;;9.20;2.22;;;14.30;94.00;;;;;;5046161;28;20041;-56
2021/08/27 02:44:58;;;;;;;8.73;2.45;;;14.30;94.00;;;;;;5047230;28;20041;-56
2021/08/27 02:47:28;;;;;;;8.27;2.08;;;14.30;94.00;;;;;;5009149;28;20456;-56
2021/08/27 02:49:56;;;;;;;10.15;1.92;;;14.30;94.10;;;;;;5021513;28;20030;-56
2021/08/27 02:52:31;;;;;;;8.90;2.28;;;14.30;94.20;;;;;;5046225;28;20037;-54
2021/08/27 02:55:13;;;;;;;8.25;2.13;;;14.30;94.20;;;;;;5054993;28;20073;-56
2021/08/27 02:58:04;;;;;;;9.57;2.00;;;14.30;94.20;;;;;;5041069;28;20134;-53
2021/08/27 03:00:34;;;;;;;10.40;2.20;;;14.30;94.30;;;;;;5037549;28;20048;-55
2021/08/27 03:03:04;;;;;;;10.07;2.17;;;14.30;94.20;;;;;;5038663;28;20041;-49
2021/08/27 03:05:40;;;;;;;7.75;1.88;;;14.30;94.30;;;;;;5042436;28;20048;-53
2021/08/27 03:08:07;;;;;;;12.88;2.28;;;14.30;94.30;;;;;;5054448;28;20040;-57
2021/08/27 03:10:54;;;;;;;8.50;2.00;;;14.30;94.40;;;;;;5054122;28;20041;-56
2021/08/27 03:13:31;;;;;;;8.57;1.98;;;14.30;94.40;;;;;;5037218;28;20048;-54
2021/08/27 03:16:00;;;;;;;9.40;2.30;;;14.30;94.50;;;;;;5056352;28;20037;-51
2021/08/27 03:18:42;;;;;;;10.18;1.98;;;14.30;94.50;;;;;;5054948;28;20032;-54
2021/08/27 03:21:31;;;;;;;;;;;14.30;94.50;;;;;;5038670;28;20029;-54
2021/08/27 03:24:16;;;;;;;11.38;2.25;;;14.30;94.50;;;;;;5028613;28;20379;-51
2021/08/27 03:26:44;;;;;;;10.10;2.70;;;14.30;94.50;;;;;;5041189;28;20073;-51
2021/08/27 03:29:17;;;;;;;7.47;1.73;;;14.40;94.40;;;;;;5034110;28;20049;-53
2021/08/27 03:31:43;;;;;;;10.57;2.47;;;14.30;94.30;;;;;;5029527;28;20391;-55
2021/08/27 03:34:10;;;;;;;10.32;2.38;;;14.40;94.30;;;;;;5036626;28;20047;-54
2021/08/27 03:36:39;;;;;;;7.55;2.47;;;14.40;94.30;;;;;;5054979;28;20045;-51
2021/08/27 03:39:06;;;;;;;9.80;2.10;;;14.30;94.20;;;;;;5054766;28;20044;-52
2021/08/27 03:41:38;;;;;;;8.20;2.08;;;14.40;94.20;;;;;;5055069;28;20047;-52
2021/08/27 03:44:07;;;;;;;7.25;2.00;;;14.40;94.20;;;;;;5055216;28;20041;-51
2021/08/27 03:46:34;;;;;;;6.97;1.70;;;14.40;94.20;;;;;;5053657;28;20045;-55
2021/08/27 03:49:00;;;;;;;7.50;1.90;;;14.40;94.10;;;;;;5054052;28;20477;-51
2021/08/27 03:51:27;;;;;;;5.90;1.67;;;14.40;94.10;;;;;;5054964;28;20122;-56
2021/08/27 03:53:57;;;;;;;9.10;2.13;;;14.40;94.00;;;;;;5054617;28;20048;-54
2021/08/27 03:56:27;;;;;;;5.20;1.70;;;14.50;93.90;;;;;;5036998;28;20043;-52
2021/08/27 03:58:55;;;;;;;9.13;2.08;;;14.40;93.90;;;;;;5054853;28;20040;-54
2021/08/27 04:01:22;;;;;;;9.68;2.13;;;14.50;93.80;;;;;;5054601;28;20051;-57
2021/08/27 04:03:53;;;;;;;6.18;1.52;;;14.50;93.90;;;;;;5020533;28;20128;-56
2021/08/27 04:06:20;;;;;;;6.82;1.63;;;14.40;93.80;;;;;;5036351;28;20461;-54
2021/08/27 04:08:50;;;;;;;4.03;1.63;;;14.50;93.80;;;;;;5020120;28;20462;-57
2021/08/27 04:11:17;;;;;;;5.47;1.55;;;14.50;93.80;;;;;;5054675;28;20037;-54
2021/08/27 04:13:44;;;;;;;4.68;1.90;;;14.50;93.90;;;;;;5053994;28;20051;-54
2021/08/27 04:16:10;;;;;;;6.20;1.60;;;14.50;93.80;;;;;;5054232;28;20048;-51
2021/08/27 04:18:35;;;;;;;3.35;1.52;;;14.50;93.80;;;;;;5053367;28;20025;-54
2021/08/27 04:21:01;;;;;;;6.22;1.70;;;14.60;93.90;;;;;;5053637;28;20505;-54
2021/08/27 04:23:27;;;;;;;4.80;1.60;;;14.60;93.90;;;;;;5054076;28;20029;-52
2021/08/27 04:25:53;;;;;;;5.72;1.88;;;14.50;93.70;;;;;;5053359;28;20053;-52
2021/08/27 04:28:18;;;;;;;6.82;1.80;;;14.60;93.80;;;;;;5052800;28;20037;-51
2021/08/27 04:30:44;;;;;;;3.97;1.75;;;14.60;93.70;;;;;;5053945;28;20037;-51
2021/08/27 04:33:10;;;;;;;5.43;1.77;;;14.60;93.80;;;;;;5051138;28;20052;-53
2021/08/27 04:35:35;;;;;;;6.10;1.80;;;14.60;93.80;;;;;;5052381;28;20382;-54
2021/08/27 04:38:01;;;;;;;5.45;1.90;;;14.50;94.20;;;;;;5053710;28;20037;-55
2021/08/27 04:40:27;;;;;;;7.72;1.98;;;14.40;94.20;;;;;;5018478;28;20124;-52
2021/08/27 04:42:53;;;;;;;7.45;2.00;;;14.50;94.50;;;;;;5053193;28;20073;-52
2021/08/27 04:45:19;;;;;;;7.45;2.20;;;14.40;94.80;;;;;;5053331;28;20419;-51
2021/08/27 04:47:45;;;;;;;7.40;1.90;;;14.40;95.30;;;;;;5052458;28;20098;-58
2021/08/27 04:50:12;;;;;;;11.65;2.15;;;14.30;95.50;;;;;;5052204;28;20044;-53
2021/08/27 04:52:38;;;;;;;7.43;1.88;;;14.30;95.60;;;;;;5052879;28;20040;-51
2021/08/27 04:55:05;;;;;;;4.43;1.77;;;14.20;95.70;;;;;;5052621;28;20041;-52
2021/08/27 04:57:31;;;;;;;8.30;1.80;;;14.20;95.80;;;;;;5053455;28;20056;-57
2021/08/27 04:59:57;;;;;;;7.38;1.73;;;14.10;95.90;;;;;;5052709;28;20041;-56
2021/08/27 05:02:24;;;;;;;6.13;1.77;;;14.20;96.30;;;;;;5054134;28;20048;-56
2021/08/27 05:04:50;;;;;;;6.72;1.92;;;14.20;96.50;;;;;;5053703;28;20500;-57
2021/08/27 05:07:16;;;;;;;5.60;1.73;;;14.10;96.50;;;;;;5051933;28;20049;-57
2021/08/27 05:09:43;;;;;;;6.80;1.70;;;14.10;96.60;;;;;;5034526;28;20056;-57
2021/08/27 05:12:08;;;;;;;6.13;1.65;;;14.10;96.60;;;;;;5034725;28;20047;-57
2021/08/27 05:14:35;;;;;;;5.28;2.22;;;14.10;96.60;;;;;;5054002;28;20033;-57
2021/08/27 05:17:02;;;;;;;8.15;2.00;;;14.10;96.70;;;;;;5033631;28;20037;-57
2021/08/27 05:19:28;;;;;;;5.82;1.60;;;14.10;96.70;;;;;;5052156;28;20047;-57
2021/08/27 05:21:54;;;;;;;4.78;1.67;;;14.10;96.90;;;;;;5053267;28;20095;-54
2021/08/27 05:24:19;;;;;;;4.63;1.48;;;14.10;96.80;;;;;;5052305;28;20124;-57
2021/08/27 05:26:51;;;;;;;6.60;1.83;;;14.10;96.90;;;;;;5052462;28;20048;-57
2021/08/27 05:29:17;;;;;;;6.00;1.90;;;14.10;97.10;;;;;;5035863;28;20037;-56
2021/08/27 05:31:43;;;;;;;5.88;1.63;;;14.10;97.00;;;;;;5018659;28;20033;-55
2021/08/27 05:34:09;;;;;;;5.15;1.70;;;14.10;97.20;;;;;;5051317;28;20107;-53
2021/08/27 05:36:34;;;;;;;8.05;1.77;;;14.10;97.30;;;;;;5052517;28;20044;-53
2021/08/27 05:39:00;;;;;;;5.80;1.90;;;14.20;97.30;;;;;;5052077;28;20048;-54
2021/08/27 05:41:25;;;;;;;6.10;2.05;;;14.20;97.30;;;;;;5020048;28;20094;-56
2021/08/27 05:43:55;;;;;;;6.80;2.03;;;14.20;97.40;;;;;;5052617;28;20036;-56
2021/08/27 05:46:20;;;;;;;7.97;1.70;;;14.20;97.40;;;;;;5051631;28;20482;-55
2021/08/27 05:48:46;;;;;;;8.20;2.00;;;14.20;97.40;;;;;;5052231;28;20053;-56
2021/08/27 05:51:12;;;;;;;9.68;1.88;;;14.30;97.50;;;;;;5052750;28;20124;-55
2021/08/27 05:53:39;;;;;;;5.35;1.45;;;14.30;97.50;;;;;;5017726;28;20095;-55
2021/08/27 05:56:05;;;;;;;7.93;1.98;;;14.30;97.50;;;;;;5018894;28;20594;-56
2021/08/27 05:58:31;;;;;;;7.45;1.80;;;14.40;97.50;;;;;;5053024;28;20033;-55
2021/08/27 06:00:56;;;;;;;10.15;2.00;;;14.40;97.60;;;;;;5048026;28;20083;-50
2021/08/27 06:03:23;;;;;;;6.53;1.77;;;14.40;97.60;;;;;;5045241;28;20032;-53
2021/08/27 06:05:49;;;;;;;11.18;1.90;;;14.50;97.60;;;;;;4998356;28;20041;-50
2021/08/27 06:08:18;;;;;;;9.05;2.15;;;14.50;97.60;;;;;;5028894;28;20036;-51
2021/08/27 06:10:44;;;;;;;6.88;2.00;;;14.50;97.60;;;;;;5052001;28;20040;-52
2021/08/27 06:13:09;;;;;;;6.78;1.80;;;14.50;97.60;;;;;;5051939;28;20037;-50
2021/08/27 06:15:36;;;;;;;6.00;1.92;;;14.50;97.60;;;;;;5046739;28;20089;-52
2021/08/27 06:18:03;;;;;;;8.18;2.30;;;14.50;97.50;;;;;;5023934;28;20067;-52
2021/08/27 06:20:28;;;;;;;10.38;2.10;;;14.50;97.60;;;;;;5033504;28;20040;-53
2021/08/27 06:22:54;;;;;;;8.90;2.10;;;14.50;97.50;;;;;;5042251;28;20528;-53
2021/08/27 06:25:20;;;;;;;10.43;2.17;;;14.60;97.70;;;;;;5046058;28;20560;-55
2021/08/27 06:27:46;;;;;;;8.98;2.10;;;14.60;97.70;;;;;;4991343;28;20103;-55
2021/08/27 06:30:12;;;;;;;7.45;2.00;;;14.70;97.70;;;;;;5044582;28;20072;-54
2021/08/27 06:32:38;;;;;;;8.13;1.83;;;14.80;97.70;;;;;;5038295;28;20064;-53
2021/08/27 06:35:04;;;;;;;6.70;2.08;;;14.80;97.70;;;;;;5051058;28;20045;-52
2021/08/27 06:40:19;;;;;;;9.43;2.22;;;15.00;97.60;;;;;;5027490;28;20182;-54
2021/08/27 06:42:44;;;;;;;11.25;1.80;;;15.10;97.50;;;;;;5049332;28;20119;-54
2021/08/27 06:45:10;;;;;;;9.30;2.35;;;15.10;97.50;;;;;;5050011;28;20055;-57
2021/08/27 06:47:36;;;;;;;7.63;2.38;;;15.10;97.40;;;;;;5031099;28;20040;-54
2021/08/27 06:50:02;;;;;;;6.95;2.00;;;15.20;97.50;;;;;;5049131;28;20041;-54
2021/08/27 06:52:28;;;;;;;9.32;2.63;;;15.10;97.40;;;;;;5041918;28;20046;-54
2021/08/27 06:54:53;;;;;;;11.13;2.60;;;15.10;97.40;;;;;;5050306;28;20044;-56
2021/08/27 06:57:19;;;;;;;10.18;2.00;;;15.10;97.30;;;;;;5044552;28;20045;-55
2021/08/27 06:59:44;;;;;;;11.27;2.28;;;15.10;97.30;;;;;;5043617;28;20494;-51
2021/08/27 07:02:10;;;;;;;10.90;2.10;;;15.10;97.40;;;;;;5049865;28;20124;-51
2021/08/27 07:04:36;;;;;;;9.90;2.03;;;15.10;97.30;;;;;;5044779;28;20045;-54
2021/08/27 07:07:02;;;;;;;11.52;2.17;;;15.10;97.30;;;;;;5045526;28;20047;-54
2021/08/27 07:09:29;;;;;;;11.90;2.40;;;15.10;97.30;;;;;;5049900;28;20120;-53
2021/08/27 07:11:54;;;;;;;11.50;2.30;;;15.10;97.30;;;;;;5050019;28;20056;-51
2021/08/27 07:14:20;;;;;;;9.85;2.30;;;15.20;97.30;;;;;;5050208;28;20497;-53
2021/08/27 07:16:45;;;;;;;13.63;2.35;;;15.20;97.30;;;;;;5037620;28;20041;-53
2021/08/27 07:19:11;;;;;;;10.70;2.10;;;15.20;97.30;;;;;;5033597;28;20106;-52
2021/08/27 07:21:37;;;;;;;11.77;2.50;;;15.30;97.30;;;;;;5034836;28;20122;-51
2021/08/27 07:24:02;;;;;;;8.55;2.78;;;15.30;97.40;;;;;;5045327;28;20045;-54
2021/08/27 07:26:28;;;;;;;13.15;2.58;;;15.30;97.30;;;;;;5043316;28;20204;-53
2021/08/27 07:28:53;;;;;;;10.30;2.50;;;15.40;97.30;;;;;;5036081;28;20132;-53
2021/08/27 07:31:20;;;;;;;15.18;2.70;;;15.40;97.40;;;;;;5034832;28;20104;-56
2021/08/27 07:33:49;;;;;;;13.05;2.28;;;15.40;97.20;;;;;;5018085;28;20077;-57
2021/08/27 07:36:14;;;;;;;10.95;2.70;;;15.40;97.20;;;;;;5025129;28;20034;-57
2021/08/27 07:38:40;;;;;;;8.70;2.45;;;15.40;97.20;;;;;;5052511;28;20106;-55
2021/08/27 07:41:06;;;;;;;14.90;2.85;;;15.40;97.20;;;;;;5049483;28;20029;-56
2021/08/27 07:43:31;;;;;;;11.15;2.58;;;15.40;97.30;;;;;;5044395;28;20095;-51
2021/08/27 07:45:57;;;;;;;11.48;2.97;;;15.30;97.30;;;;;;5035549;28;20087;-56
2021/08/27 07:48:27;;;;;;;12.63;2.63;;;15.30;97.40;;;;;;5042474;28;20041;-51
2021/08/27 07:50:55;;;;;;;11.02;2.35;;;15.40;97.60;;;;;;5035581;28;20064;-52
2021/08/27 07:53:20;;;;;;;12.82;3.10;;;15.40;97.70;;;;;;5036014;28;20037;-54
2021/08/27 07:55:46;;;;;;;10.88;2.63;;;15.50;97.60;;;;;;5047919;28;20429;-54
2021/08/27 07:58:12;;;;;;;10.60;2.65;;;15.60;97.70;;;;;;5054355;28;20197;-54
2021/08/27 08:00:37;;;;;;;12.13;2.70;;;15.70;97.80;;;;;;5044974;28;20451;-51
2021/08/27 08:03:04;;;;;;;12.05;2.80;;;15.90;97.60;;;;;;5048645;28;20768;-57
2021/08/27 08:05:30;;;;;;;13.02;3.22;;;15.90;97.30;;;;;;5025584;28;20512;-58
2021/08/27 08:07:56;;;;;;;10.73;2.72;;;16.10;97.30;;;;;;5018465;28;20037;-57
2021/08/27 08:10:21;;;;;;;17.17;2.83;;;16.10;96.90;;;;;;5018577;28;20041;-56
2021/08/27 08:12:47;;;;;;;9.85;2.92;;;16.20;96.90;;;;;;5035366;28;20175;-57
2021/08/27 08:15:14;;;;;;;9.45;2.40;;;16.20;96.80;;;;;;5053311;28;20087;-57
2021/08/27 08:17:40;;;;;;;8.63;2.22;;;16.10;96.90;;;;;;5053188;28;20446;-57
2021/08/27 08:20:06;;;;;;;9.32;2.55;;;16.20;96.80;;;;;;5053124;28;20460;-55
2021/08/27 08:22:31;;;;;;;10.07;3.00;;;16.20;96.70;;;;;;5043284;28;20497;-49
2021/08/27 08:24:58;;;;;;;13.45;3.00;;;16.20;96.90;;;;;;5044754;28;20041;-54
2021/08/27 08:27:24;;;;;;;15.40;2.67;;;16.30;96.50;;;;;;5036393;28;20041;-56
2021/08/27 08:29:50;;;;;;;10.98;2.75;;;16.20;96.30;;;;;;5048203;28;20048;-54
2021/08/27 08:32:16;;;;;;;8.85;2.35;;;16.20;96.40;;;;;;5036094;28;20551;-58
2021/08/27 08:34:41;;;;;;;9.98;2.40;;;16.20;96.50;;;;;;5053705;28;20032;-58
2021/08/27 08:37:08;;;;;;;8.85;2.33;;;16.10;96.30;;;;;;5041469;28;20038;-58
2021/08/27 08:39:36;;;;;;;7.97;1.98;;;16.10;96.40;;;;;;5013527;28;20449;-56
2021/08/27 08:42:01;;;;;;;7.80;1.70;;;16.00;96.40;;;;;;5048491;28;20051;-52
2021/08/27 08:44:27;;;;;;;5.88;1.55;;;15.90;96.40;;;;;;5054438;28;20091;-57
2021/08/27 08:46:55;;;;;;;11.70;2.10;;;15.90;96.60;;;;;;5046547;28;20445;-58
2021/08/27 08:49:27;;;;;;;6.68;1.98;;;15.90;96.60;;;;;;5054285;28;20056;-50
2021/08/27 08:51:53;;;;;;;11.27;2.17;;;15.90;96.90;;;;;;5051443;28;20043;-50
2021/08/27 08:54:20;;;;;;;10.02;2.10;;;16.10;97.00;;;;;;5034522;28;20028;-51
2021/08/27 08:56:47;;;;;;;8.43;2.00;;;16.30;97.30;;;;;;5052055;28;20043;-52
2021/08/27 08:59:16;;;;;;;5.72;2.00;;;16.50;97.30;;;;;;5052315;28;20412;-53
2021/08/27 09:01:41;;;;;;;8.30;2.10;;;16.70;96.80;;;;;;5053135;28;20127;-50
2021/08/27 09:04:07;;;;;;;8.00;2.20;;;16.80;96.00;;;;;;5053964;28;20501;-51
2021/08/27 09:06:36;;;;;;;6.78;1.70;;;16.80;95.10;;;;;;5053794;28;20037;-57
2021/08/27 09:09:03;;;;;;;5.63;1.77;;;16.80;94.30;;;;;;5052280;28;20033;-52
2021/08/27 09:11:30;;;;;;;9.40;1.90;;;16.80;94.50;;;;;;5034490;28;20504;-51
2021/08/27 09:14:02;;;;;;;6.43;1.60;;;16.90;94.50;;;;;;5052448;28;20041;-54
2021/08/27 09:16:32;;;;;;;5.22;1.73;;;16.90;94.40;;;;;;5034846;28;20037;-52
2021/08/27 09:18:58;;;;;;;6.88;1.88;;;17.10;93.30;;;;;;5034581;28;20044;-52
2021/08/27 09:21:34;;;;;;;5.65;1.50;;;17.20;93.30;;;;;;5053042;28;20116;-52
2021/08/27 09:24:25;;;;;;;8.70;2.05;;;17.20;92.70;;;;;;5053261;28;20041;-58
2021/08/27 09:26:53;;;;;;;5.68;1.85;;;17.20;93.30;;;;;;5052228;28;20417;-57
2021/08/27 09:29:38;;;;;;;7.30;1.98;;;17.40;93.80;;;;;;5051576;28;20281;-58
2021/08/27 09:32:25;;;;;;;5.68;1.85;;;17.50;94.20;;;;;;5053825;28;20147;-58
2021/08/27 09:35:08;;;;;;;7.57;1.70;;;17.60;94.00;;;;;;5040190;28;20066;-58
2021/08/27 09:37:48;;;;;;;9.85;2.13;;;17.70;93.80;;;;;;5054489;28;20061;-58
2021/08/27 09:40:20;;;;;;;8.48;2.17;;;17.70;93.70;;;;;;5058209;28;20043;-57
2021/08/27 09:42:51;;;;;;;10.02;1.88;;;17.60;93.70;;;;;;5062339;28;20044;-55
2021/08/27 09:45:19;;;;;;;9.88;1.90;;;17.50;93.80;;;;;;5053286;28;20091;-53
2021/08/27 09:48:05;;;;;;;7.07;1.90;;;17.30;93.90;;;;;;5032725;28;20041;-51
2021/08/27 09:50:33;;;;;;;8.45;2.17;;;17.30;94.10;;;;;;5032387;28;20473;-53
2021/08/27 09:53:00;;;;;;;9.48;2.30;;;17.20;94.00;;;;;;5058773;28;20044;-50
2021/08/27 09:55:28;;;;;;;11.80;2.20;;;17.10;94.10;;;;;;5054458;28;20068;-50
2021/08/27 09:58:07;;;;;;;12.02;2.45;;;17.10;94.40;;;;;;5038424;28;20032;-54
2021/08/27 10:00:35;;;;;;;12.50;2.78;;;17.00;94.10;;;;;;5043525;28;20120;-56
2021/08/27 10:03:26;;;;;;;8.18;2.33;;;17.10;94.10;;;;;;5059091;28;20036;-55
2021/08/27 10:05:54;;;;;;;11.25;2.40;;;17.20;94.00;;;;;;5042655;28;20107;-53
2021/08/27 10:08:32;;;;;;;7.57;2.50;;;17.30;93.30;;;;;;5057162;28;20101;-55
2021/08/27 10:11:18;;;;;;;8.65;2.13;;;17.30;93.00;;;;;;5056732;28;20053;-54
2021/08/27 10:13:45;;;;;;;9.45;2.30;;;17.30;92.60;;;;;;5059049;28;20045;-57
2021/08/27 10:16:12;;;;;;;8.80;2.60;;;17.30;92.90;;;;;;5053219;28;20114;-57
2021/08/27 10:18:37;;;;;;;15.07;4.85;;;17.30;92.80;;;;;;5058308;28;20044;-56
2021/08/27 10:21:05;;;;;;;12.82;2.70;;;17.40;92.80;;;;;;5057209;28;20036;-56
2021/08/27 10:23:31;;;;;;;11.95;2.63;;;17.50;92.40;;;;;;5056554;28;20090;-57
2021/08/27 10:25:58;;;;;;;12.93;2.50;;;17.70;92.50;;;;;;5059589;28;20036;-54
2021/08/27 10:28:29;;;;;;;11.00;2.80;;;17.90;91.50;;;;;;5053350;28;20081;-57
2021/08/27 10:30:58;;;;;;;8.07;2.70;;;18.10;91.50;;;;;;5043736;28;20045;-57
2021/08/27 10:33:39;;;;;;;9.68;2.85;;;18.20;90.20;;;;;;5041294;28;20087;-57
2021/08/27 10:36:09;;;;;;;8.60;2.60;;;18.30;89.30;;;;;;5045456;28;20043;-56
2021/08/27 10:38:40;;;;;;;11.50;2.47;;;18.40;90.10;;;;;;5060252;28;21468;-57
2021/08/27 10:41:14;;;;;;;10.55;2.67;;;18.30;90.20;;;;;;5054159;28;20080;-57
2021/08/27 10:44:00;;;;;;;8.13;2.63;;;18.40;88.90;;;;;;5034649;28;20045;-57
2021/08/27 10:46:44;;;;;;;13.20;2.80;;;18.30;89.50;;;;;;5038120;28;20045;-54
2021/08/27 10:49:11;;;;;;;9.40;2.45;;;18.30;84.40;;;;;;5053692;28;20041;-53
2021/08/27 10:51:43;;;;;;;8.77;2.22;;;18.20;84.20;;;;;;5046643;28;20413;-57
2021/08/27 10:54:11;;;;;;;;;;;18.10;84.10;;;;;;5058006;28;20036;-58
2021/08/27 10:56:54;;;;;;;8.93;2.22;;;17.90;85.00;;;;;;5041485;28;19924;-59
2021/08/27 10:59:22;;;;;;;9.88;2.40;;;17.80;85.80;;;;;;5057095;28;20068;-57
2021/08/27 11:02:01;;;;;;;8.48;2.28;;;17.70;86.10;;;;;;5053586;28;20053;-58
2021/08/27 11:04:27;;;;;;;6.70;2.05;;;17.80;86.00;;;;;;5035209;28;20045;-55
2021/08/27 11:07:05;;;;;;;7.32;2.20;;;17.80;85.10;;;;;;5017938;28;20497;-59
2021/08/27 11:09:35;;;;;;;6.15;2.13;;;17.90;83.60;;;;;;5023725;28;20045;-57
2021/08/27 11:12:23;;;;;;;9.85;2.38;;;18.00;83.00;;;;;;5061523;28;20033;-58
2021/08/27 11:14:54;;;;;;;5.80;2.15;;;18.00;83.00;;;;;;5035207;28;20402;-55
2021/08/27 11:17:20;;;;;;;7.93;1.95;;;18.00;82.70;;;;;;5039407;28;20091;-60
2021/08/27 11:19:56;;;;;;;10.25;2.05;;;18.20;81.30;;;;;;5053141;28;20580;-58
2021/08/27 11:22:31;;;;;;;8.55;2.17;;;18.40;80.10;;;;;;5049150;28;20099;-55
2021/08/27 11:25:07;;;;;;;8.23;1.98;;;18.50;81.30;;;;;;5031270;28;20049;-58
2021/08/27 11:27:34;;;;;;;7.20;2.17;;;18.60;82.10;;;;;;5055896;28;20047;-56
2021/08/27 11:30:32;;;;;;;9.18;2.83;;;18.70;81.40;;;;;;5057623;28;20063;-58
2021/08/27 11:32:58;;;;;;;11.18;2.55;;;18.60;81.40;;;;;;5049182;28;20033;-58
2021/08/27 11:35:25;;;;;;;6.65;2.45;;;18.30;85.00;;;;;;5051497;28;20048;-59
2021/08/27 11:38:05;;;;;;;7.97;2.40;;;18.00;87.50;;;;;;5049975;28;20069;-57
2021/08/27 11:40:33;;;;;;;8.65;2.15;;;17.70;89.90;;;;;;5037172;28;20064;-58
2021/08/27 11:43:00;;;;;;;11.02;3.17;;;17.50;90.30;;;;;;5032055;28;20056;-56
2021/08/27 11:45:27;;;;;;;8.73;2.75;;;17.30;90.50;;;;;;5053388;28;20063;-55
2021/08/27 11:48:07;;;;;;;7.25;2.08;;;17.30;91.10;;;;;;5044218;28;20535;-57
2021/08/27 11:50:50;;;;;;;8.88;2.53;;;17.30;91.40;;;;;;5038074;28;20456;-57
2021/08/27 11:53:16;;;;;;;9.57;2.35;;;17.50;91.40;;;;;;5054708;28;20393;-57
2021/08/27 11:55:46;;;;;;;9.25;2.78;;;17.60;91.20;;;;;;5036560;28;20033;-56
2021/08/27 11:58:12;;;;;;;7.43;2.50;;;17.80;90.60;;;;;;5049367;28;20045;-58
2021/08/27 12:00:43;;;;;;;8.95;2.38;;;18.00;90.00;;;;;;5004928;28;20068;-59
2021/08/27 12:03:12;;;;;;;6.93;2.17;;;18.20;88.70;;;;;;5049188;28;20041;-57
2021/08/27 12:05:39;;;;;;;8.13;2.15;;;18.40;85.30;;;;;;5056733;28;20037;-58
2021/08/27 12:08:08;;;;;;;8.95;2.30;;;18.40;86.10;;;;;;5049341;28;20052;-56
2021/08/27 12:10:36;;;;;;;8.68;2.83;;;18.40;84.60;;;;;;5034341;28;20037;-57
2021/08/27 12:13:04;;;;;;;8.85;2.17;;;18.40;85.30;;;;;;5036121;28;20041;-57
2021/08/27 12:15:35;;;;;;;14.00;2.40;;;18.30;85.20;;;;;;5054705;28;20116;-57
2021/08/27 12:18:05;;;;;;;9.35;2.67;;;18.20;85.80;;;;;;5037266;28;20045;-57
2021/08/27 12:20:32;;;;;;;7.65;2.10;;;18.00;85.70;;;;;;5036974;28;20045;-52
2021/08/27 12:23:23;;;;;;;10.35;2.70;;;17.80;87.80;;;;;;5053730;28;20138;-52
2021/08/27 12:26:02;;;;;;;12.00;2.63;;;17.60;89.50;;;;;;5043603;28;20045;-53
2021/08/27 12:28:39;;;;;;;12.25;3.03;;;17.50;90.60;;;;;;5047908;28;20041;-51
2021/08/27 12:31:10;;;;;;;8.02;2.30;;;17.50;90.30;;;;;;5030337;28;20049;-53
2021/08/27 12:33:38;;;;;;;9.57;2.38;;;17.50;90.50;;;;;;5028271;28;20041;-53
2021/08/27 12:36:05;;;;;;;11.25;2.50;;;17.80;90.80;;;;;;5055257;28;20421;-55
2021/08/27 12:38:31;;;;;;;10.52;2.50;;;18.00;90.20;;;;;;5050247;28;20090;-55
2021/08/27 12:41:19;;;;;;;9.45;2.40;;;18.20;89.50;;;;;;5055013;28;20528;-52
2021/08/27 12:43:45;;;;;;;9.23;2.00;;;18.30;87.60;;;;;;5048605;28;20060;-56
2021/08/27 12:46:31;;;;;;;7.50;2.03;;;18.40;84.80;;;;;;5051727;28;20162;-55
2021/08/27 12:49:23;;;;;;;9.98;2.63;;;18.30;85.50;;;;;;5017039;28;20052;-56
2021/08/27 12:51:52;;;;;;;5.65;2.08;;;18.20;84.80;;;;;;5052304;28;20105;-51
2021/08/27 12:54:19;;;;;;;6.85;1.98;;;18.40;85.00;;;;;;5034361;28;20385;-58
2021/08/27 12:57:10;;;;;;;6.05;2.13;;;18.50;85.20;;;;;;5037116;28;20064;-55
2021/08/27 12:59:36;;;;;;;6.32;1.83;;;18.50;82.70;;;;;;5033456;28;20136;-57
2021/08/27 13:02:16;;;;;;;9.40;2.00;;;18.60;82.50;;;;;;5030508;28;20119;-54